Time;durP1;ratioP1;P1;durP2;ratioP2;P2;SDS_P1;SDS_P2;PMS_P1;PMS_P2;Temp;Humidity;BMP_temperature;BMP_pressure;BME280_temperature;BME280_humidity;BME280_pressure;Samples;Min_cycle;Max_cycle;Signal;HPM_P1;HPM_P2
2022/04/10 00:00:04;;;;;;;15.48;3.55;;;3.30;99.90;;;;;;5101466;27;20774;-83
2022/04/10 00:02:30;;;;;;;15.60;3.53;;;3.30;99.90;;;;;;5107303;28;20131;-82
2022/04/10 00:04:55;;;;;;;31.27;3.95;;;3.30;99.90;;;;;;5104137;28;20127;-83
2022/04/10 00:07:21;;;;;;;19.48;4.97;;;3.30;99.90;;;;;;5099750;27;20047;-82
2022/04/10 00:09:47;;;;;;;26.98;4.43;;;3.30;99.90;;;;;;5109474;28;20051;-82
2022/04/10 00:12:13;;;;;;;17.90;4.63;;;3.30;99.90;;;;;;5111471;27;20055;-84
2022/04/10 00:14:38;;;;;;;15.68;3.65;;;3.30;99.90;;;;;;5109487;28;20060;-80
2022/04/10 00:17:04;;;;;;;18.33;4.28;;;3.30;99.90;;;;;;5097780;27;20079;-83
2022/04/10 00:19:31;;;;;;;14.15;3.17;;;3.40;99.90;;;;;;5109681;27;20401;-82
2022/04/10 00:21:56;;;;;;;16.27;4.32;;;3.40;99.90;;;;;;5095804;28;20367;-83
2022/04/10 00:24:25;;;;;;;11.82;1.75;;;3.40;99.90;;;;;;5091356;28;20032;-82
2022/04/10 00:26:52;;;;;;;19.98;4.20;;;3.30;99.90;;;;;;5100846;28;20054;-82
2022/04/10 00:29:18;;;;;;;20.90;5.65;;;3.40;99.90;;;;;;5108426;28;20047;-84
2022/04/10 00:31:43;;;;;;;11.32;2.92;;;3.30;99.90;;;;;;5108479;28;20035;-83
2022/04/10 00:34:09;;;;;;;12.55;2.80;;;3.40;99.90;;;;;;5107478;28;20170;-85
2022/04/10 00:36:34;;;;;;;17.35;3.33;;;3.40;99.90;;;;;;5107891;28;20032;-83
2022/04/10 00:39:00;;;;;;;16.33;4.35;;;3.40;99.90;;;;;;5095029;28;20083;-84
2022/04/10 00:41:26;;;;;;;16.48;3.83;;;3.40;99.90;;;;;;5104134;27;20038;-83
2022/04/10 00:44:06;;;;;;;8.60;2.97;;;3.30;99.90;;;;;;5111290;27;20037;-83
2022/04/10 00:46:32;;;;;;;18.50;5.28;;;3.30;99.90;;;;;;5091725;27;20100;-83
2022/04/10 00:48:57;;;;;;;20.02;5.03;;;3.10;99.90;;;;;;5091967;28;20455;-83
2022/04/10 00:51:42;;;;;;;12.63;3.60;;;3.00;99.90;;;;;;5097560;28;20039;-82
2022/04/10 00:54:17;;;;;;;12.38;3.13;;;2.90;99.90;;;;;;5110022;28;20040;-83
2022/04/10 00:56:46;;;;;;;12.55;2.60;;;2.90;99.90;;;;;;5106731;28;20051;-83
2022/04/10 00:59:12;;;;;;;9.85;2.38;;;3.00;99.90;;;;;;5109103;27;20046;-83
2022/04/10 01:01:44;;;;;;;13.00;3.00;;;3.00;99.90;;;;;;5107998;27;20040;-83
2022/04/10 01:04:11;;;;;;;13.40;3.95;;;3.00;99.90;;;;;;5102396;27;20504;-83
2022/04/10 01:06:37;;;;;;;19.35;3.50;;;3.00;99.90;;;;;;5096402;28;20494;-83
2022/04/10 01:09:04;;;;;;;17.67;3.67;;;2.80;99.90;;;;;;5112437;27;20059;-83
2022/04/10 01:11:30;;;;;;;22.92;4.22;;;2.70;99.90;;;;;;5112236;27;20082;-84
2022/04/10 01:13:56;;;;;;;9.05;2.60;;;2.60;99.90;;;;;;5101949;27;20466;-82
2022/04/10 01:16:25;;;;;;;21.67;4.25;;;2.60;99.90;;;;;;5123150;28;20032;-81
2022/04/10 01:18:51;;;;;;;20.95;2.90;;;2.60;99.90;;;;;;5114339;28;20047;-81
2022/04/10 01:21:25;;;;;;;14.48;4.32;;;2.50;99.90;;;;;;5122815;28;20043;-82
2022/04/10 01:23:55;;;;;;;10.27;2.25;;;2.50;99.90;;;;;;5116165;27;20048;-82
2022/04/10 01:26:22;;;;;;;16.63;4.05;;;2.50;99.90;;;;;;5125326;27;20116;-80
2022/04/10 01:28:59;;;;;;;17.25;4.85;;;2.60;99.90;;;;;;5131517;27;20044;-82
2022/04/10 01:31:26;;;;;;;16.98;3.85;;;2.60;99.90;;;;;;5123514;28;20127;-82
2022/04/10 01:33:55;;;;;;;23.67;3.63;;;2.50;99.90;;;;;;5103260;28;20051;-83
2022/04/10 01:36:23;;;;;;;17.50;4.45;;;2.60;99.90;;;;;;5099681;28;20051;-82
2022/04/10 01:38:52;;;;;;;23.52;6.82;;;2.50;99.90;;;;;;5094631;28;20044;-82
2022/04/10 01:41:18;;;;;;;13.75;3.03;;;2.50;99.90;;;;;;5100589;27;20065;-82
2022/04/10 01:43:48;;;;;;;13.10;2.13;;;2.50;99.90;;;;;;5093858;28;20040;-82
2022/04/10 01:46:14;;;;;;;12.70;2.33;;;2.40;99.90;;;;;;5092662;28;20425;-82
2022/04/10 01:48:40;;;;;;;21.55;4.13;;;2.50;99.90;;;;;;5107362;27;20387;-83
2022/04/10 01:51:07;;;;;;;11.35;3.80;;;2.40;99.90;;;;;;5105913;28;20039;-84
2022/04/10 01:53:34;;;;;;;13.35;3.75;;;2.40;99.90;;;;;;5110080;28;20052;-84
2022/04/10 01:56:03;;;;;;;11.10;3.47;;;2.50;99.90;;;;;;5095827;28;20087;-83
2022/04/10 01:58:30;;;;;;;13.57;2.85;;;2.50;99.90;;;;;;5094473;28;20043;-83
2022/04/10 02:00:56;;;;;;;26.55;4.68;;;2.60;99.90;;;;;;5114647;27;20396;-82
2022/04/10 02:03:21;;;;;;;12.48;2.58;;;2.70;99.90;;;;;;5107612;27;20039;-83
2022/04/10 02:05:47;;;;;;;26.83;5.07;;;2.80;99.90;;;;;;5109900;28;20477;-84
2022/04/10 02:08:15;;;;;;;28.50;3.85;;;2.80;99.90;;;;;;5108402;28;20103;-83
2022/04/10 02:10:41;;;;;;;19.05;3.85;;;2.80;99.90;;;;;;5100700;28;20519;-83
2022/04/10 02:13:09;;;;;;;24.73;4.90;;;2.90;99.90;;;;;;5103503;27;20070;-81
2022/04/10 02:15:36;;;;;;;13.50;3.33;;;3.00;99.90;;;;;;5096160;28;20621;-84
2022/04/10 02:18:02;;;;;;;12.52;2.67;;;3.10;99.90;;;;;;5091706;28;20035;-83
2022/04/10 02:20:28;;;;;;;24.83;3.80;;;3.10;99.90;;;;;;5092030;28;20519;-83
2022/04/10 02:22:53;;;;;;;13.00;2.20;;;3.10;99.90;;;;;;5090485;28;20824;-83
2022/04/10 02:25:19;;;;;;;26.08;3.17;;;3.20;99.90;;;;;;5095441;28;20057;-85
2022/04/10 02:27:45;;;;;;;9.35;2.78;;;3.50;99.90;;;;;;5108563;27;20196;-83
2022/04/10 02:30:12;;;;;;;14.57;2.50;;;3.50;99.90;;;;;;5105297;28;20040;-83
2022/04/10 02:32:40;;;;;;;16.88;4.43;;;3.40;99.90;;;;;;5105317;28;20044;-83
2022/04/10 02:35:07;;;;;;;5.70;1.23;;;3.40;99.90;;;;;;5108761;28;20027;-84
2022/04/10 02:37:33;;;;;;;10.85;2.03;;;3.30;99.90;;;;;;5108572;28;20052;-84
2022/04/10 02:39:58;;;;;;;15.40;2.60;;;3.30;99.90;;;;;;5107171;27;20043;-84
2022/04/10 02:42:24;;;;;;;10.90;2.40;;;3.30;99.90;;;;;;5102461;28;20048;-83
2022/04/10 02:44:50;;;;;;;27.58;3.67;;;3.30;99.90;;;;;;5092811;28;20597;-83
2022/04/10 02:47:16;;;;;;;8.57;2.10;;;3.20;99.90;;;;;;5107367;28;20036;-84
2022/04/10 02:49:42;;;;;;;15.15;3.05;;;3.20;99.90;;;;;;5116819;27;20035;-83
2022/04/10 02:52:07;;;;;;;12.98;1.92;;;3.20;99.90;;;;;;5103574;28;20066;-84
2022/04/10 02:54:33;;;;;;;11.85;2.95;;;3.20;99.90;;;;;;5091622;28;20040;-85
2022/04/10 02:56:59;;;;;;;15.43;3.78;;;3.20;99.90;;;;;;5100755;28;20440;-84
2022/04/10 02:59:24;;;;;;;9.85;2.58;;;3.20;99.90;;;;;;5097535;28;20032;-83
2022/04/10 03:01:50;;;;;;;16.92;3.78;;;3.30;99.90;;;;;;5090212;28;20051;-83
2022/04/10 03:04:19;;;;;;;14.57;2.83;;;3.20;99.90;;;;;;5096757;28;20040;-83
2022/04/10 03:06:44;;;;;;;17.00;4.65;;;3.20;99.90;;;;;;5106537;28;20142;-83
2022/04/10 03:09:10;;;;;;;6.50;2.30;;;3.20;99.90;;;;;;5096705;28;20078;-85
2022/04/10 03:11:35;;;;;;;12.32;3.60;;;3.30;99.90;;;;;;5107469;28;20439;-83
2022/04/10 03:14:02;;;;;;;10.25;2.20;;;3.30;99.90;;;;;;5107356;28;20036;-85
2022/04/10 03:16:28;;;;;;;2.30;0.80;;;3.20;99.90;;;;;;5099545;28;20035;-85
2022/04/10 03:18:53;;;;;;;2.78;0.60;;;3.10;99.90;;;;;;5093906;28;20065;-84
2022/04/10 03:21:19;;;;;;;1.65;0.52;;;3.10;99.90;;;;;;5112968;28;20059;-84
2022/04/10 03:23:45;;;;;;;4.50;0.70;;;3.20;99.90;;;;;;5115161;27;20043;-84
2022/04/10 03:26:10;;;;;;;2.60;0.65;;;3.20;99.90;;;;;;5102448;27;20456;-83
2022/04/10 03:28:36;;;;;;;2.25;0.60;;;3.20;99.90;;;;;;5106846;28;20138;-83
2022/04/10 03:31:02;;;;;;;5.07;0.40;;;3.10;99.90;;;;;;5109510;28;20486;-84
2022/04/10 03:33:27;;;;;;;2.42;0.40;;;3.10;99.90;;;;;;5099193;28;20090;-84
2022/04/10 03:35:53;;;;;;;0.95;0.50;;;3.20;99.90;;;;;;5107074;28;20050;-84
2022/04/10 03:38:19;;;;;;;5.97;1.15;;;3.10;99.90;;;;;;5107112;28;20118;-84
2022/04/10 03:40:45;;;;;;;2.38;0.85;;;3.10;99.90;;;;;;5096490;28;20158;-85
2022/04/10 03:43:14;;;;;;;3.50;0.50;;;3.00;99.90;;;;;;5105112;28;20047;-85
2022/04/10 03:45:40;;;;;;;5.25;1.23;;;3.00;99.90;;;;;;5106751;28;20089;-83
2022/04/10 03:48:06;;;;;;;4.28;0.80;;;2.90;99.90;;;;;;5109311;28;20478;-83
2022/04/10 03:50:33;;;;;;;3.97;1.17;;;2.90;99.90;;;;;;5107437;28;20406;-84
2022/04/10 03:53:03;;;;;;;3.97;0.70;;;2.90;99.90;;;;;;5105887;28;20450;-83
2022/04/10 03:55:29;;;;;;;3.78;0.80;;;2.90;99.90;;;;;;5101287;28;20040;-85
2022/04/10 03:57:54;;;;;;;5.55;1.10;;;2.80;99.90;;;;;;5104987;28;20374;-84
2022/04/10 04:00:20;;;;;;;9.13;1.48;;;2.90;99.90;;;;;;5094634;28;20040;-84
2022/04/10 04:02:46;;;;;;;3.95;1.50;;;2.90;99.90;;;;;;5108788;27;20400;-83
2022/04/10 04:05:12;;;;;;;6.45;1.42;;;2.90;99.90;;;;;;5079258;28;20040;-83
2022/04/10 04:07:39;;;;;;;9.50;2.35;;;2.90;99.90;;;;;;5116386;27;20047;-82
2022/04/10 04:10:05;;;;;;;4.53;1.60;;;2.80;99.90;;;;;;5112391;27;20551;-82
2022/04/10 04:12:33;;;;;;;5.13;1.17;;;2.90;99.90;;;;;;5107562;28;20039;-82
2022/04/10 04:14:58;;;;;;;8.10;2.58;;;2.90;99.90;;;;;;5114634;27;20072;-83
2022/04/10 04:17:24;;;;;;;6.25;1.65;;;2.90;99.90;;;;;;5089160;28;20060;-82
2022/04/10 04:19:50;;;;;;;9.98;1.30;;;2.90;99.90;;;;;;5106011;28;20031;-82
2022/04/10 04:22:18;;;;;;;6.90;1.80;;;2.80;99.90;;;;;;5106401;27;20043;-84
2022/04/10 04:24:44;;;;;;;5.80;2.17;;;2.90;99.90;;;;;;5112765;27;20085;-83
2022/04/10 04:27:10;;;;;;;6.88;1.30;;;2.80;99.90;;;;;;5104584;28;20044;-83
2022/04/10 04:29:35;;;;;;;4.03;1.42;;;2.70;99.90;;;;;;5114055;28;20063;-83
2022/04/10 04:32:03;;;;;;;5.40;1.55;;;2.60;99.90;;;;;;5102744;28;20050;-83
2022/04/10 04:34:28;;;;;;;6.60;2.20;;;2.60;99.90;;;;;;5111742;27;20054;-84
2022/04/10 04:36:54;;;;;;;5.18;1.40;;;2.60;99.90;;;;;;5123208;27;20092;-85
2022/04/10 04:39:20;;;;;;;5.18;1.40;;;2.60;99.90;;;;;;5108625;28;20035;-78
2022/04/10 04:41:46;;;;;;;4.07;1.27;;;2.60;99.90;;;;;;5108375;28;20162;-80
2022/04/10 04:44:11;;;;;;;6.78;2.65;;;2.50;99.90;;;;;;5111161;28;20036;-79
2022/04/10 04:46:37;;;;;;;8.30;1.38;;;2.50;99.90;;;;;;5105250;28;20405;-80
2022/04/10 04:49:04;;;;;;;6.88;1.45;;;2.50;99.90;;;;;;5104026;28;20042;-79
2022/04/10 04:51:34;;;;;;;8.13;1.60;;;2.40;99.90;;;;;;5099241;27;20044;-80
2022/04/10 04:54:01;;;;;;;6.82;1.58;;;2.30;99.90;;;;;;5094902;28;20038;-78
2022/04/10 04:56:26;;;;;;;5.95;0.95;;;2.30;99.90;;;;;;5111178;27;20039;-81
2022/04/10 04:58:52;;;;;;;9.70;2.40;;;2.30;99.90;;;;;;5103896;28;20040;-80
2022/04/10 05:01:18;;;;;;;6.10;2.00;;;2.30;99.90;;;;;;5103705;27;20527;-79
2022/04/10 05:03:43;;;;;;;12.80;2.25;;;2.50;99.90;;;;;;5105164;27;20100;-81
2022/04/10 05:06:09;;;;;;;7.70;2.75;;;2.60;99.90;;;;;;5111416;28;20048;-79
2022/04/10 05:08:34;;;;;;;9.68;2.15;;;2.60;99.90;;;;;;5095486;27;20460;-79
2022/04/10 05:11:00;;;;;;;11.15;1.80;;;2.70;99.90;;;;;;5107864;27;20118;-79
2022/04/10 05:13:26;;;;;;;7.72;1.50;;;2.80;99.90;;;;;;5102269;27;20075;-80
2022/04/10 05:15:52;;;;;;;5.80;1.25;;;2.90;99.90;;;;;;5096278;28;20092;-79
2022/04/10 05:18:19;;;;;;;5.90;1.30;;;2.90;99.90;;;;;;5092564;28;20055;-79
2022/04/10 05:20:45;;;;;;;5.32;1.90;;;3.10;99.90;;;;;;5091702;28;20087;-79
2022/04/10 05:23:16;;;;;;;10.05;2.20;;;3.20;99.90;;;;;;5106496;28;20079;-79
2022/04/10 05:25:41;;;;;;;;;;;3.30;99.90;;;;;;5110833;27;20455;-82
2022/04/10 05:28:07;;;;;;;7.88;1.00;;;3.40;99.90;;;;;;5105779;28;19919;-82
2022/04/10 05:30:33;;;;;;;5.43;1.67;;;3.40;99.90;;;;;;5106958;28;20032;-79
2022/04/10 05:32:59;;;;;;;8.60;1.20;;;3.80;99.90;;;;;;5119152;27;20391;-79
2022/04/10 05:35:24;;;;;;;7.50;2.00;;;4.30;99.90;;;;;;5091462;28;20044;-81
2022/04/10 05:37:50;;;;;;;8.68;1.92;;;3.90;99.90;;;;;;5091402;28;20036;-80
2022/04/10 05:40:16;;;;;;;3.85;1.95;;;3.90;99.90;;;;;;5102739;28;20027;-80
2022/04/10 05:42:45;;;;;;;9.88;2.90;;;3.60;99.90;;;;;;5098995;27;20474;-84
2022/04/10 05:45:11;;;;;;;11.65;2.38;;;3.40;99.90;;;;;;5100913;28;20043;-81
2022/04/10 05:47:39;;;;;;;5.88;1.73;;;3.40;99.90;;;;;;5109914;27;20040;-81
2022/04/10 05:50:05;;;;;;;8.85;1.77;;;3.40;99.90;;;;;;5109201;27;20058;-79
2022/04/10 05:52:31;;;;;;;8.43;2.15;;;3.30;99.90;;;;;;5089618;28;20054;-81
2022/04/10 05:54:59;;;;;;;21.00;3.90;;;3.30;99.90;;;;;;5090754;28;20115;-81
2022/04/10 05:57:25;;;;;;;7.10;2.45;;;3.80;99.90;;;;;;5100859;28;20075;-79
2022/04/10 05:59:51;;;;;;;14.63;1.98;;;3.90;99.90;;;;;;5102979;28;20036;-80
2022/04/10 06:02:17;;;;;;;9.55;2.95;;;3.90;99.90;;;;;;5102425;27;20133;-79
2022/04/10 06:04:43;;;;;;;10.38;2.75;;;3.90;99.90;;;;;;5118867;27;20118;-79
2022/04/10 06:07:08;;;;;;;8.80;2.85;;;3.80;99.90;;;;;;5099552;27;20043;-78
2022/04/10 06:09:34;;;;;;;8.45;1.83;;;4.10;99.90;;;;;;5096562;27;20036;-83
2022/04/10 06:12:00;;;;;;;11.52;2.08;;;4.30;99.90;;;;;;5105559;28;20084;-84
2022/04/10 06:14:25;;;;;;;4.93;1.38;;;4.60;99.90;;;;;;5092530;28;20097;-85
2022/04/10 06:16:51;;;;;;;14.02;2.70;;;5.00;99.90;;;;;;5121311;27;20042;-82
2022/04/10 06:19:18;;;;;;;7.55;1.83;;;4.80;99.90;;;;;;5114475;28;20067;-81
2022/04/10 06:21:44;;;;;;;8.07;1.88;;;5.20;99.90;;;;;;5101777;28;20038;-84
2022/04/10 06:24:10;;;;;;;9.35;2.33;;;5.00;99.90;;;;;;5109351;28;20038;-85
2022/04/10 06:26:35;;;;;;;7.72;1.65;;;5.10;99.90;;;;;;5114924;27;20043;-79
2022/04/10 06:29:01;;;;;;;8.75;2.00;;;5.20;99.90;;;;;;5132711;27;20108;-83
2022/04/10 06:31:27;;;;;;;6.93;1.20;;;5.30;99.90;;;;;;5131394;27;20430;-80
2022/04/10 06:33:54;;;;;;;7.30;1.80;;;5.30;99.90;;;;;;5124431;28;20134;-81
2022/04/10 06:36:20;;;;;;;9.23;1.92;;;5.10;99.90;;;;;;5115803;27;20085;-83
2022/04/10 06:38:45;;;;;;;7.25;1.45;;;5.30;99.90;;;;;;5131137;27;20432;-82
2022/04/10 06:41:11;;;;;;;9.73;1.92;;;5.30;99.90;;;;;;5133002;27;20062;-83
2022/04/10 06:43:37;;;;;;;8.07;1.52;;;5.20;99.90;;;;;;5110888;27;20068;-82
2022/04/10 06:46:04;;;;;;;12.00;1.90;;;5.10;99.90;;;;;;5111600;28;20051;-83
2022/04/10 06:48:31;;;;;;;6.25;1.45;;;5.10;99.90;;;;;;5096285;28;20136;-84
2022/04/10 06:50:56;;;;;;;13.20;4.20;;;5.10;99.90;;;;;;5094256;28;20104;-83
2022/04/10 06:53:22;;;;;;;6.57;1.13;;;5.00;99.90;;;;;;5110514;28;20398;-83
2022/04/10 06:55:48;;;;;;;5.63;2.00;;;5.10;99.90;;;;;;5112196;28;20043;-82
2022/04/10 06:58:15;;;;;;;7.13;1.58;;;5.10;99.90;;;;;;5108816;27;20039;-82
2022/04/10 07:00:41;;;;;;;11.02;1.88;;;6.10;99.90;;;;;;5097885;28;20129;-81
2022/04/10 07:03:07;;;;;;;14.02;2.95;;;6.80;99.90;;;;;;5099985;27;20475;-81
2022/04/10 07:05:32;;;;;;;11.50;2.40;;;7.30;99.90;;;;;;5090969;28;20131;-83
2022/04/10 07:07:58;;;;;;;13.02;3.13;;;7.70;99.90;;;;;;5090868;28;20648;-83
2022/04/10 07:10:23;;;;;;;11.95;2.38;;;7.20;99.90;;;;;;5124088;28;20095;-84
2022/04/10 07:12:49;;;;;;;9.30;3.10;;;6.50;99.90;;;;;;5118126;27;20036;-83
2022/04/10 07:15:15;;;;;;;18.08;2.58;;;6.40;99.90;;;;;;5112867;27;20083;-82
2022/04/10 07:17:48;;;;;;;11.75;2.50;;;6.40;99.90;;;;;;5091441;28;20047;-84
2022/04/10 07:20:14;;;;;;;14.27;2.72;;;6.40;99.90;;;;;;5094260;28;20092;-83
2022/04/10 07:25:24;;;;;;;15.40;1.83;;;6.00;99.90;;;;;;5088242;28;20068;-79
2022/04/10 07:27:49;;;;;;;10.20;2.08;;;6.10;99.90;;;;;;5112281;27;20080;-84
2022/04/10 07:30:15;;;;;;;18.50;2.60;;;6.40;99.90;;;;;;5095216;27;20123;-84
2022/04/10 07:32:41;;;;;;;14.65;2.45;;;6.60;99.90;;;;;;5109534;28;20051;-84
2022/04/10 07:35:07;;;;;;;9.98;2.08;;;6.90;99.90;;;;;;5102689;28;20039;-83
2022/04/10 07:37:32;;;;;;;5.85;1.48;;;6.70;99.90;;;;;;5096407;28;20055;-82
2022/04/10 07:39:58;;;;;;;9.90;2.60;;;7.00;99.90;;;;;;5110676;28;20482;-82
2022/04/10 07:42:24;;;;;;;13.20;2.72;;;7.20;99.90;;;;;;5094006;28;20048;-81
2022/04/10 07:44:54;;;;;;;11.80;2.50;;;7.30;99.90;;;;;;5092914;28;20040;-81
2022/04/10 07:47:26;;;;;;;9.05;2.22;;;7.90;99.90;;;;;;5109596;27;20044;-81
2022/04/10 07:49:53;;;;;;;13.27;2.28;;;7.70;99.90;;;;;;5111349;28;20044;-82
2022/04/10 07:52:23;;;;;;;9.38;1.38;;;7.80;99.90;;;;;;5111051;28;20505;-80
2022/04/10 07:54:49;;;;;;;12.60;1.88;;;7.50;99.90;;;;;;5108122;28;20032;-86
2022/04/10 07:57:16;;;;;;;8.52;2.13;;;7.00;99.90;;;;;;5112479;28;20043;-84
2022/04/10 07:59:42;;;;;;;14.93;2.17;;;6.80;99.90;;;;;;5114737;28;20086;-83
2022/04/10 08:02:08;;;;;;;8.75;2.30;;;6.60;99.90;;;;;;5113646;27;20391;-80
2022/04/10 08:04:34;;;;;;;17.00;3.80;;;6.50;99.90;;;;;;5105109;27;20131;-78
2022/04/10 08:07:00;;;;;;;11.95;2.22;;;6.50;99.90;;;;;;5106451;27;20058;-81
2022/04/10 08:09:25;;;;;;;10.25;2.40;;;6.80;99.90;;;;;;5096438;28;20087;-80
2022/04/10 08:11:51;;;;;;;22.38;2.90;;;7.10;99.90;;;;;;5090702;28;20085;-81
2022/04/10 08:14:17;;;;;;;14.13;3.67;;;7.40;99.90;;;;;;5108609;28;20044;-80
2022/04/10 08:16:43;;;;;;;13.25;2.13;;;7.80;99.90;;;;;;5094323;27;20517;-82
2022/04/10 08:19:09;;;;;;;9.88;2.00;;;7.70;99.90;;;;;;5092229;28;20028;-81
2022/04/10 08:21:34;;;;;;;9.65;2.35;;;7.80;99.90;;;;;;5098737;27;20032;-80
2022/04/10 08:24:00;;;;;;;13.77;2.00;;;7.50;99.90;;;;;;5096848;28;20108;-81
2022/04/10 08:26:25;;;;;;;8.57;2.05;;;7.40;99.90;;;;;;5106215;28;20054;-80
2022/04/10 08:28:51;;;;;;;11.70;1.95;;;7.80;99.90;;;;;;5093456;27;20142;-82
2022/04/10 08:31:17;;;;;;;15.95;4.22;;;7.90;99.90;;;;;;5092921;27;20031;-81
2022/04/10 08:33:42;;;;;;;9.65;2.08;;;8.20;99.90;;;;;;5110825;27;20071;-81
2022/04/10 08:36:08;;;;;;;6.45;2.22;;;7.60;99.90;;;;;;5106521;27;20035;-80
2022/04/10 08:38:34;;;;;;;7.57;1.38;;;7.50;99.90;;;;;;5092788;28;20032;-79
2022/04/10 08:41:01;;;;;;;17.58;2.38;;;7.80;99.90;;;;;;5108131;28;20209;-80
2022/04/10 08:43:28;;;;;;;11.88;2.45;;;8.00;99.90;;;;;;5110845;28;20151;-80
2022/04/10 08:45:58;;;;;;;4.93;1.30;;;8.20;99.90;;;;;;5109892;27;20085;-81
2022/04/10 08:48:27;;;;;;;6.50;0.93;;;8.40;99.90;;;;;;5110822;27;20043;-80
2022/04/10 08:50:55;;;;;;;7.47;2.00;;;8.30;99.90;;;;;;5108877;28;20070;-80
2022/04/10 08:53:23;;;;;;;9.18;1.02;;;8.20;99.90;;;;;;5106421;28;20039;-81
2022/04/10 08:55:48;;;;;;;5.53;1.08;;;8.10;99.90;;;;;;5100879;28;20048;-82
2022/04/10 08:58:15;;;;;;;11.15;1.75;;;8.20;99.90;;;;;;5097757;27;20036;-81
2022/04/10 09:00:44;;;;;;;9.82;1.42;;;8.30;99.90;;;;;;5105150;28;20087;-82
2022/04/10 09:03:09;;;;;;;9.38;3.22;;;8.10;99.90;;;;;;5103369;27;20115;-79
2022/04/10 09:05:35;;;;;;;11.82;2.47;;;8.00;99.90;;;;;;5107485;27;20174;-83
2022/04/10 09:08:08;;;;;;;9.43;1.50;;;7.60;99.90;;;;;;5101814;27;20100;-80
2022/04/10 09:10:55;;;;;;;8.57;1.10;;;7.40;99.90;;;;;;5106498;28;20043;-80
2022/04/10 09:13:29;;;;;;;13.60;2.75;;;7.40;99.90;;;;;;5103501;27;20116;-81
2022/04/10 09:16:15;;;;;;;4.88;1.42;;;7.40;99.90;;;;;;5111687;27;20048;-80
2022/04/10 09:18:55;;;;;;;5.85;1.52;;;7.60;99.90;;;;;;5104578;27;20079;-81
2022/04/10 09:21:26;;;;;;;18.23;2.97;;;7.70;99.90;;;;;;5096538;27;20048;-82
2022/04/10 09:24:05;;;;;;;15.65;2.45;;;7.70;99.90;;;;;;5100471;27;20043;-83
2022/04/10 09:26:55;;;;;;;5.25;1.30;;;7.80;99.90;;;;;;5097463;28;20074;-83
2022/04/10 09:29:22;;;;;;;8.87;2.27;;;8.20;99.90;;;;;;5109427;27;20050;-83
2022/04/10 09:31:49;;;;;;;5.80;2.33;;;8.50;99.90;;;;;;5106902;27;20036;-81
2022/04/10 09:34:17;;;;;;;13.00;2.50;;;9.00;99.90;;;;;;5092378;28;20101;-78
2022/04/10 09:36:48;;;;;;;9.82;2.15;;;8.90;99.90;;;;;;5078365;28;20031;-84
2022/04/10 09:39:31;;;;;;;9.80;2.17;;;8.60;99.90;;;;;;5096366;27;20410;-85
2022/04/10 09:42:08;;;;;;;14.40;3.00;;;8.20;99.90;;;;;;5104136;28;20390;-85
2022/04/10 09:44:35;;;;;;;10.98;2.88;;;8.10;99.90;;;;;;5097040;28;20032;-83
2022/04/10 09:47:06;;;;;;;9.07;2.22;;;8.70;99.90;;;;;;5102466;28;20043;-85
2022/04/10 09:49:32;;;;;;;8.43;2.13;;;8.90;99.90;;;;;;5096768;27;20105;-85
2022/04/10 09:52:02;;;;;;;6.30;1.48;;;9.20;99.90;;;;;;5091492;28;20028;-86
2022/04/10 09:54:46;;;;;;;12.02;1.42;;;8.90;99.90;;;;;;5106742;28;20469;-84
2022/04/10 09:57:17;;;;;;;7.53;1.35;;;8.50;99.90;;;;;;5095214;27;20086;-86
2022/04/10 09:59:43;;;;;;;;;;;8.30;99.90;;;;;;5101319;27;20058;-84
2022/04/10 10:02:13;;;;;;;12.82;2.03;;;8.30;99.90;;;;;;5104652;27;19973;-82
2022/04/10 10:04:40;;;;;;;8.25;1.67;;;8.60;99.90;;;;;;5101061;28;20062;-83
2022/04/10 10:07:10;;;;;;;8.43;1.98;;;8.80;99.90;;;;;;5090677;28;20040;-82
2022/04/10 10:09:36;;;;;;;5.43;1.77;;;9.00;99.90;;;;;;5089370;28;20071;-83
2022/04/10 10:12:04;;;;;;;6.38;1.65;;;9.10;99.90;;;;;;5096856;28;20076;-84
2022/04/10 10:14:31;;;;;;;7.90;1.00;;;9.20;99.90;;;;;;5108735;27;20134;-82
2022/04/10 10:17:03;;;;;;;3.38;0.93;;;9.10;99.90;;;;;;5107001;28;20039;-85
2022/04/10 10:19:34;;;;;;;8.27;1.00;;;9.40;99.90;;;;;;5109413;28;20047;-81
2022/04/10 10:22:04;;;;;;;7.13;2.08;;;9.60;99.90;;;;;;5103008;28;20039;-83
2022/04/10 10:24:36;;;;;;;8.18;2.35;;;9.50;99.90;;;;;;5094281;27;20044;-85
2022/04/10 10:27:24;;;;;;;6.25;1.20;;;9.30;99.90;;;;;;5090794;27;20127;-84
2022/04/10 10:29:56;;;;;;;7.70;2.00;;;9.40;99.90;;;;;;5090969;28;20115;-83
2022/04/10 10:32:38;;;;;;;13.23;3.00;;;9.00;99.90;;;;;;5109487;28;20123;-83
2022/04/10 10:35:04;;;;;;;11.02;1.73;;;9.20;99.90;;;;;;5104606;27;20044;-82
2022/04/10 10:37:45;;;;;;;4.68;1.05;;;9.50;99.90;;;;;;5088626;28;20119;-83
2022/04/10 10:40:18;;;;;;;5.80;1.55;;;9.40;99.90;;;;;;5101971;28;20050;-83
2022/04/10 10:42:45;;;;;;;12.88;2.38;;;9.60;99.90;;;;;;5090175;28;20082;-84
2022/04/10 10:45:30;;;;;;;13.32;2.40;;;9.70;99.90;;;;;;5090517;28;20036;-82
2022/04/10 10:48:22;;;;;;;4.78;1.40;;;9.80;99.90;;;;;;5089713;28;20040;-84
2022/04/10 10:50:50;;;;;;;5.85;1.58;;;9.20;99.90;;;;;;5080908;28;20134;-83
2022/04/10 10:53:20;;;;;;;10.45;2.65;;;9.30;99.90;;;;;;5100162;28;20050;-85
2022/04/10 10:55:49;;;;;;;4.78;0.95;;;9.50;99.90;;;;;;5091688;28;20112;-84
2022/04/10 10:58:29;;;;;;;5.45;1.67;;;9.60;99.90;;;;;;5104365;28;20048;-82
2022/04/10 11:01:03;;;;;;;5.93;1.27;;;9.80;99.90;;;;;;5099177;27;20054;-83
2022/04/10 11:03:29;;;;;;;5.60;1.60;;;10.10;99.90;;;;;;5120781;28;20050;-84
2022/04/10 11:06:14;;;;;;;5.00;1.33;;;10.00;99.90;;;;;;5104903;27;20036;-86
2022/04/10 11:08:40;;;;;;;16.88;2.05;;;9.70;99.90;;;;;;5088942;28;20071;-84
2022/04/10 11:11:07;;;;;;;4.90;1.50;;;9.70;99.90;;;;;;5091412;28;20694;-83
2022/04/10 11:13:42;;;;;;;4.40;0.70;;;10.00;99.90;;;;;;5123075;27;20040;-84
2022/04/10 11:16:12;;;;;;;4.93;3.22;;;10.30;99.90;;;;;;5112443;28;20103;-83
2022/04/10 11:18:42;;;;;;;10.10;1.58;;;9.70;99.90;;;;;;5095465;28;20055;-84
2022/04/10 11:21:16;;;;;;;10.40;1.35;;;9.50;99.90;;;;;;5099822;28;20132;-84
2022/04/10 11:23:45;;;;;;;5.80;1.55;;;9.50;99.90;;;;;;5141512;27;20035;-82
2022/04/10 11:26:20;;;;;;;4.43;1.13;;;9.00;99.90;;;;;;5128677;27;20078;-82
2022/04/10 11:29:07;;;;;;;6.10;1.67;;;9.20;99.90;;;;;;5114608;27;20043;-83
2022/04/10 11:31:33;;;;;;;16.17;2.33;;;9.70;99.90;;;;;;5115763;27;20039;-82
2022/04/10 11:34:12;;;;;;;5.55;1.00;;;10.00;99.90;;;;;;5110609;27;20043;-82
2022/04/10 11:36:47;;;;;;;5.95;1.30;;;10.10;99.90;;;;;;5111852;28;20039;-82
2022/04/10 11:39:12;;;;;;;11.15;1.30;;;9.80;99.90;;;;;;5112765;27;20069;-84
2022/04/10 11:41:41;;;;;;;8.38;1.73;;;9.60;99.90;;;;;;5111614;28;20114;-80
2022/04/10 11:44:08;;;;;;;4.10;1.05;;;9.70;99.90;;;;;;5104339;27;20040;-85
2022/04/10 11:46:37;;;;;;;5.40;1.70;;;9.50;99.90;;;;;;5113288;28;20134;-85
2022/04/10 11:49:03;;;;;;;9.30;1.65;;;9.70;99.90;;;;;;5111437;28;20048;-83
2022/04/10 11:51:29;;;;;;;4.93;1.63;;;9.80;99.90;;;;;;5096578;28;20039;-84
2022/04/10 11:53:59;;;;;;;5.70;1.70;;;10.00;99.90;;;;;;5103769;28;20055;-84
2022/04/10 11:56:24;;;;;;;6.33;1.00;;;10.30;99.90;;;;;;5104584;28;20047;-84
2022/04/10 11:58:50;;;;;;;5.93;1.15;;;10.30;99.90;;;;;;5113563;27;20077;-84
2022/04/10 12:01:18;;;;;;;8.70;1.98;;;10.30;99.90;;;;;;5116303;27;20042;-85
2022/04/10 12:03:49;;;;;;;4.53;1.35;;;10.30;99.90;;;;;;5098783;27;20138;-85
2022/04/10 12:06:21;;;;;;;4.93;1.13;;;10.50;99.90;;;;;;5110230;28;20040;-84
2022/04/10 12:08:48;;;;;;;8.50;1.50;;;10.40;99.90;;;;;;5109317;27;20047;-85
2022/04/10 12:11:14;;;;;;;7.63;1.52;;;10.00;99.90;;;;;;5093119;27;20040;-84
2022/04/10 12:13:39;;;;;;;8.60;2.85;;;9.80;99.90;;;;;;5092122;27;20036;-83
2022/04/10 12:16:16;;;;;;;5.28;2.00;;;9.80;99.90;;;;;;5101070;28;20036;-84
2022/04/10 12:18:52;;;;;;;13.00;2.13;;;9.50;99.90;;;;;;5107209;28;20036;-84
2022/04/10 12:21:23;;;;;;;5.95;0.85;;;9.60;99.90;;;;;;5097600;28;20436;-82
2022/04/10 12:24:03;;;;;;;7.38;1.83;;;10.00;99.90;;;;;;5110465;28;20055;-81
2022/04/10 12:26:29;;;;;;;;;;;10.20;99.90;;;;;;5112564;27;20048;-83
2022/04/10 12:28:55;;;;;;;6.63;1.80;;;10.40;99.90;;;;;;5105618;27;19919;-84
2022/04/10 12:31:21;;;;;;;4.07;0.85;;;10.30;99.90;;;;;;5102058;28;20435;-84
2022/04/10 12:33:47;;;;;;;6.50;1.50;;;10.00;99.90;;;;;;5113797;28;20047;-83
2022/04/10 12:36:21;;;;;;;9.10;1.10;;;10.10;99.90;;;;;;5113533;27;20067;-84
2022/04/10 12:38:54;;;;;;;6.15;1.20;;;9.90;99.90;;;;;;5113299;28;20404;-84
2022/04/10 12:41:30;;;;;;;5.07;0.75;;;9.30;99.90;;;;;;5112545;28;20092;-83
2022/04/10 12:43:59;;;;;;;4.47;0.68;;;9.30;99.90;;;;;;5112885;28;20035;-82
2022/04/10 12:46:36;;;;;;;7.15;1.27;;;9.20;99.90;;;;;;5111966;28;20035;-84
2022/04/10 12:49:11;;;;;;;13.50;2.55;;;9.40;99.90;;;;;;5113309;28;20039;-83
2022/04/10 12:51:49;;;;;;;8.98;1.00;;;9.60;99.90;;;;;;5112914;28;20490;-84
2022/04/10 12:54:15;;;;;;;5.53;0.70;;;9.80;99.90;;;;;;5100127;28;20047;-83
2022/04/10 12:56:41;;;;;;;4.45;1.42;;;9.90;99.90;;;;;;5111252;28;20069;-83
2022/04/10 12:59:07;;;;;;;4.25;0.85;;;9.80;99.90;;;;;;5112927;28;20062;-82